Time;durP1;ratioP1;P1;durP2;ratioP2;P2;SDS_P1;SDS_P2;PMS_P1;PMS_P2;Temp;Humidity;BMP_temperature;BMP_pressure;BME280_temperature;BME280_humidity;BME280_pressure;Samples;Min_cycle;Max_cycle;Signal;HPM_P1;HPM_P2
2022/03/31 00:00:06;;;;;;;;;;;9.30;89.50;;;;;;5049195;28;20438;-77
2022/03/31 00:02:34;;;;;;;;;;;9.30;89.50;;;;;;5044848;28;19925;-77
2022/03/31 00:05:00;;;;;;;;;;;9.30;89.50;;;;;;5044347;28;19933;-76
2022/03/31 00:07:27;;;;;;;;;;;9.20;89.50;;;;;;5048340;28;19929;-77
2022/03/31 00:09:54;;;;;;;;;;;9.20;89.50;;;;;;5044024;28;20278;-76
2022/03/31 00:12:21;;;;;;;;;;;9.20;89.50;;;;;;5043573;28;20491;-77
2022/03/31 00:14:48;;;;;;;;;;;9.20;89.50;;;;;;5039980;28;19933;-77
2022/03/31 00:17:15;;;;;;;;;;;9.20;89.50;;;;;;5045345;28;19932;-76
2022/03/31 00:19:41;;;;;;;;;;;9.20;89.50;;;;;;5045585;28;19929;-77
2022/03/31 00:22:08;;;;;;;;;;;9.20;89.60;;;;;;5044828;28;20401;-77
2022/03/31 00:24:34;;;;;;;;;;;9.20;89.60;;;;;;5042861;28;19989;-77
2022/03/31 00:27:01;;;;;;;;;;;9.20;89.60;;;;;;5047657;28;19928;-77
2022/03/31 00:29:29;;;;;;;;;;;9.20;89.60;;;;;;5045415;28;19936;-76
2022/03/31 00:31:55;;;;;;;;;;;9.10;89.60;;;;;;5045016;28;19933;-77
2022/03/31 00:34:22;;;;;;;;;;;9.10;89.60;;;;;;5044853;28;20296;-77
2022/03/31 00:36:48;;;;;;;;;;;9.10;89.60;;;;;;5043628;28;19935;-77
2022/03/31 00:39:31;;;;;;;;;;;9.10;89.60;;;;;;5042737;28;19933;-77
2022/03/31 00:41:59;;;;;;;;;;;9.10;89.60;;;;;;5042409;28;19928;-77
2022/03/31 00:44:26;;;;;;;;;;;9.10;89.60;;;;;;5044400;28;19929;-77
2022/03/31 00:46:54;;;;;;;;;;;9.00;89.60;;;;;;5044029;28;19929;-77
2022/03/31 00:49:22;;;;;;;;;;;9.00;89.60;;;;;;5045739;28;19948;-76
2022/03/31 00:51:48;;;;;;;;;;;9.00;89.70;;;;;;5047609;28;19933;-76
2022/03/31 00:54:15;;;;;;;;;;;9.00;89.70;;;;;;5047281;28;19928;-77
2022/03/31 00:56:42;;;;;;;;;;;9.00;89.70;;;;;;5048630;28;19929;-77
2022/03/31 00:59:10;;;;;;;;;;;9.00;89.70;;;;;;5047324;28;19929;-78
2022/03/31 01:01:38;;;;;;;;;;;9.00;89.70;;;;;;5044677;28;19944;-77
2022/03/31 01:04:06;;;;;;;;;;;9.00;89.70;;;;;;5053171;28;19928;-76
2022/03/31 01:06:33;;;;;;;;;;;8.90;89.60;;;;;;5051329;28;19929;-76
2022/03/31 01:09:00;;;;;;;;;;;8.90;89.60;;;;;;5047744;28;19936;-77
2022/03/31 01:11:27;;;;;;;;;;;8.80;89.50;;;;;;5051605;28;19967;-76
2022/03/31 01:13:53;;;;;;;;;;;8.90;89.70;;;;;;5045303;28;19929;-77
2022/03/31 01:16:20;;;;;;;;;;;8.80;89.60;;;;;;5046061;28;19929;-77
2022/03/31 01:18:47;;;;;;;;;;;8.80;89.70;;;;;;5047252;28;19928;-77
2022/03/31 01:21:15;;;;;;;;;;;8.90;89.80;;;;;;5048785;28;19933;-76
2022/03/31 01:23:44;;;;;;;;;;;8.80;89.70;;;;;;5045172;28;19940;-76
2022/03/31 01:26:10;;;;;;;;;;;8.80;89.50;;;;;;5051659;28;20559;-76
2022/03/31 01:28:37;;;;;;;;;;;8.80;89.60;;;;;;5044399;28;19928;-77
2022/03/31 01:31:04;;;;;;;;;;;8.80;89.70;;;;;;5047859;28;19935;-77
2022/03/31 01:33:31;;;;;;;;;;;8.80;89.70;;;;;;5045708;28;20373;-77
2022/03/31 01:35:58;;;;;;;;;;;8.70;89.50;;;;;;5047363;28;20702;-76
2022/03/31 01:38:25;;;;;;;;;;;8.70;89.50;;;;;;5046221;28;20019;-76
2022/03/31 01:40:53;;;;;;;;;;;8.70;90.00;;;;;;5045229;28;19933;-77
2022/03/31 01:43:21;;;;;;;;;;;8.70;89.30;;;;;;5045952;28;20385;-76
2022/03/31 01:45:48;;;;;;;;;;;8.70;89.30;;;;;;5045561;28;20396;-77
2022/03/31 01:48:16;;;;;;;;;;;8.70;89.30;;;;;;5050418;28;20197;-76
2022/03/31 01:50:42;;;;;;;;;;;8.70;89.40;;;;;;5044644;28;19940;-75
2022/03/31 01:53:09;;;;;;;;;;;8.70;89.30;;;;;;5044572;28;19928;-76
2022/03/31 01:55:36;;;;;;;;;;;8.70;89.30;;;;;;5045046;28;19929;-77
2022/03/31 01:58:03;;;;;;;;;;;8.60;89.20;;;;;;5047485;28;19929;-76
2022/03/31 02:00:30;;;;;;;;;;;8.60;89.20;;;;;;5047994;28;19935;-78
2022/03/31 02:02:57;;;;;;;;;;;8.60;89.10;;;;;;5048045;28;19928;-78
2022/03/31 02:05:23;;;;;;;;;;;8.60;89.20;;;;;;5045478;28;19936;-77
2022/03/31 02:07:53;;;;;;;;;;;8.60;89.10;;;;;;5042206;28;19932;-77
2022/03/31 02:10:19;;;;;;;;;;;8.60;89.10;;;;;;5044999;28;19929;-76
2022/03/31 02:12:47;;;;;;;;;;;8.60;89.20;;;;;;5045437;28;19935;-77
2022/03/31 02:15:15;;;;;;;;;;;8.60;89.10;;;;;;5044377;28;19932;-76
2022/03/31 02:17:42;;;;;;;;;;;8.60;89.20;;;;;;5050433;28;20400;-77
2022/03/31 02:20:09;;;;;;;;;;;8.50;89.10;;;;;;5047519;28;20429;-76
2022/03/31 02:22:36;;;;;;;;;;;8.50;88.90;;;;;;5044413;28;19936;-77
2022/03/31 02:25:03;;;;;;;;;;;8.50;88.90;;;;;;5047222;28;19939;-77
2022/03/31 02:27:30;;;;;;;;;;;8.50;88.70;;;;;;5042793;28;20423;-77
2022/03/31 02:29:56;;;;;;;;;;;8.40;88.70;;;;;;5045247;28;20308;-76
2022/03/31 02:32:24;;;;;;;;;;;8.50;88.70;;;;;;5046411;28;19929;-77
2022/03/31 02:34:51;;;;;;;;;;;8.50;88.60;;;;;;5045158;28;19929;-77
2022/03/31 02:37:17;;;;;;;;;;;8.40;88.50;;;;;;5046319;28;20503;-78
2022/03/31 02:39:44;;;;;;;;;;;8.40;88.60;;;;;;5045227;28;19933;-76
2022/03/31 02:42:11;;;;;;;;;;;8.40;88.60;;;;;;5046005;28;19944;-76
2022/03/31 02:44:38;;;;;;;;;;;8.40;88.60;;;;;;5045968;28;19929;-77
2022/03/31 02:47:05;;;;;;;;;;;8.40;88.60;;;;;;5044408;28;19936;-76
2022/03/31 02:49:33;;;;;;;;;;;8.40;88.60;;;;;;5047477;28;19932;-76
2022/03/31 02:52:00;;;;;;;;;;;8.40;88.50;;;;;;5042000;28;19936;-76
2022/03/31 02:57:10;;;;;;;;;;;8.30;88.50;;;;;;5041213;28;20537;-76
2022/03/31 02:59:37;;;;;;;;;;;8.30;88.30;;;;;;5044018;28;20332;-77
2022/03/31 03:02:04;;;;;;;;;;;8.30;88.20;;;;;;5040454;28;19929;-76
2022/03/31 03:04:32;;;;;;;;;;;8.30;88.20;;;;;;5046705;28;19929;-76
2022/03/31 03:06:59;;;;;;;;;;;8.30;88.10;;;;;;5045924;28;19933;-77
2022/03/31 03:09:26;;;;;;;;;;;8.20;87.90;;;;;;5045185;28;20045;-77
2022/03/31 03:11:52;;;;;;;;;;;8.20;88.10;;;;;;5046308;28;19936;-76
2022/03/31 03:14:19;;;;;;;;;;;8.20;87.90;;;;;;5043200;28;19935;-77
2022/03/31 03:16:46;;;;;;;;;;;8.20;88.60;;;;;;5041326;28;19933;-76
2022/03/31 03:19:12;;;;;;;;;;;8.20;87.80;;;;;;5044067;28;19929;-76
2022/03/31 03:21:40;;;;;;;;;;;8.20;87.80;;;;;;5043858;28;19947;-77
2022/03/31 03:24:07;;;;;;;;;;;8.10;88.40;;;;;;5043777;28;19944;-76
2022/03/31 03:26:34;;;;;;;;;;;8.10;87.60;;;;;;5040042;28;20573;-76
2022/03/31 03:29:00;;;;;;;;;;;8.10;87.70;;;;;;5042767;28;20312;-77
2022/03/31 03:31:27;;;;;;;;;;;8.10;87.70;;;;;;5045239;28;19929;-77
2022/03/31 03:33:54;;;;;;;;;;;8.10;87.70;;;;;;5041327;28;20011;-77
2022/03/31 03:36:20;;;;;;;;;;;8.10;87.70;;;;;;5044725;28;19928;-77
2022/03/31 03:38:48;;;;;;;;;;;8.00;87.70;;;;;;5046851;28;20380;-77
2022/03/31 03:41:15;;;;;;;;;;;8.00;87.80;;;;;;5045843;28;19929;-77
2022/03/31 03:43:42;;;;;;;;;;;8.00;87.90;;;;;;5039918;28;19935;-76
2022/03/31 03:46:09;;;;;;;;;;;8.00;88.00;;;;;;5045399;28;19944;-77
2022/03/31 03:48:36;;;;;;;;;;;8.00;88.00;;;;;;5043649;28;19966;-76
2022/03/31 03:51:03;;;;;;;;;;;8.00;88.10;;;;;;5044001;28;20609;-76
2022/03/31 03:53:29;;;;;;;;;;;8.00;88.10;;;;;;5046885;28;20000;-77
2022/03/31 03:55:57;;;;;;;;;;;8.00;88.20;;;;;;5044506;28;19936;-76
2022/03/31 03:58:24;;;;;;;;;;;7.90;88.10;;;;;;5048692;28;19933;-76
2022/03/31 04:00:50;;;;;;;;;;;7.90;88.10;;;;;;5040016;28;19928;-77
2022/03/31 04:03:17;;;;;;;;;;;8.00;88.10;;;;;;5043209;28;19967;-76
2022/03/31 04:05:44;;;;;;;;;;;7.90;88.20;;;;;;5043714;28;19929;-76
2022/03/31 04:08:11;;;;;;;;;;;7.90;88.10;;;;;;5046384;28;19928;-76
2022/03/31 04:10:37;;;;;;;;;;;7.90;88.20;;;;;;5042403;28;19937;-76
2022/03/31 04:13:05;;;;;;;;;;;7.90;88.20;;;;;;5044625;28;19933;-76
2022/03/31 04:15:32;;;;;;;;;;;7.80;88.20;;;;;;5041940;28;19939;-76
2022/03/31 04:17:59;;;;;;;;;;;7.90;88.20;;;;;;5045843;28;19940;-76
2022/03/31 04:20:26;;;;;;;;;;;7.90;88.20;;;;;;5044010;28;20725;-77
2022/03/31 04:22:52;;;;;;;;;;;7.80;88.20;;;;;;5042702;28;19929;-76
2022/03/31 04:25:19;;;;;;;;;;;7.80;88.20;;;;;;5047353;28;19929;-76
2022/03/31 04:27:45;;;;;;;;;;;7.80;88.20;;;;;;5053301;28;19961;-76
2022/03/31 04:30:18;;;;;;;;;;;7.80;88.20;;;;;;5047370;28;19928;-76
2022/03/31 04:32:44;;;;;;;;;;;7.80;88.20;;;;;;5045466;28;19933;-76
2022/03/31 04:35:11;;;;;;;;;;;7.80;88.20;;;;;;5048498;28;19936;-77
2022/03/31 04:37:38;;;;;;;;;;;7.80;88.30;;;;;;5046663;28;19929;-76
2022/03/31 04:40:06;;;;;;;;;;;7.80;88.20;;;;;;5048702;28;19990;-76
2022/03/31 04:42:32;;;;;;;;;;;7.80;88.20;;;;;;5047987;28;19933;-76
2022/03/31 04:44:59;;;;;;;;;;;7.80;88.20;;;;;;5046665;28;19935;-77
2022/03/31 04:47:27;;;;;;;;;;;7.80;88.30;;;;;;5047591;28;20415;-77
2022/03/31 04:49:54;;;;;;;;;;;7.70;88.30;;;;;;5049887;28;19939;-76
2022/03/31 04:52:21;;;;;;;;;;;7.80;88.50;;;;;;5046599;28;19933;-77
2022/03/31 04:54:47;;;;;;;;;;;7.70;88.40;;;;;;5046031;28;20554;-76
2022/03/31 04:57:14;;;;;;;;;;;7.70;88.50;;;;;;5049125;28;19929;-76
2022/03/31 04:59:41;;;;;;;;;;;7.70;88.50;;;;;;5044831;28;20678;-76
2022/03/31 05:02:10;;;;;;;;;;;7.70;88.50;;;;;;5043900;28;20376;-76
2022/03/31 05:04:38;;;;;;;;;;;7.70;88.70;;;;;;5046365;28;19940;-77
2022/03/31 05:07:05;;;;;;;;;;;7.70;88.70;;;;;;5046712;28;19936;-76
2022/03/31 05:09:31;;;;;;;;;;;7.70;88.80;;;;;;5045918;28;19933;-75
2022/03/31 05:11:58;;;;;;;;;;;7.60;88.70;;;;;;5046293;28;19936;-75
2022/03/31 05:14:25;;;;;;;;;;;7.70;88.80;;;;;;5042595;28;20013;-77
2022/03/31 05:16:52;;;;;;;;;;;7.60;89.40;;;;;;5048061;28;19939;-77
2022/03/31 05:19:19;;;;;;;;;;;7.60;88.60;;;;;;5048616;28;20013;-76
2022/03/31 05:21:47;;;;;;;;;;;7.60;88.70;;;;;;5047477;28;19935;-77
2022/03/31 05:24:13;;;;;;;;;;;7.60;88.80;;;;;;5047956;28;19939;-76
2022/03/31 05:26:40;;;;;;;;;;;7.60;88.80;;;;;;5047784;28;19933;-75
2022/03/31 05:29:06;;;;;;;;;;;7.60;88.80;;;;;;5039157;28;19929;-75
2022/03/31 05:31:33;;;;;;;;;;;7.60;88.80;;;;;;5045205;28;19929;-76
2022/03/31 05:34:00;;;;;;;;;;;7.60;88.80;;;;;;5046875;28;19928;-76
2022/03/31 05:36:26;;;;;;;;;;;7.60;88.90;;;;;;5046951;28;19933;-75
2022/03/31 05:38:56;;;;;;;;;;;7.60;88.90;;;;;;5045640;28;19928;-76
2022/03/31 05:41:22;;;;;;;;;;;7.60;89.00;;;;;;5044721;28;20608;-76
2022/03/31 05:43:49;;;;;;;;;;;7.60;89.00;;;;;;5044569;28;19936;-76
2022/03/31 05:46:16;;;;;;;;;;;7.50;89.60;;;;;;5048068;28;19932;-76
2022/03/31 05:48:42;;;;;;;;;;;7.50;89.00;;;;;;5048537;28;19936;-75
2022/03/31 05:51:09;;;;;;;;;;;7.50;89.80;;;;;;5047690;28;19929;-76
2022/03/31 05:53:35;;;;;;;;;;;7.50;89.00;;;;;;5044898;28;19939;-76
2022/03/31 05:56:03;;;;;;;;;;;7.50;89.10;;;;;;5047087;28;19932;-75
2022/03/31 05:58:30;;;;;;;;;;;7.40;90.10;;;;;;5049631;28;20412;-75
2022/03/31 06:00:57;;;;;;;;;;;7.40;90.30;;;;;;5050782;28;20045;-75
2022/03/31 06:03:24;;;;;;;;;;;7.30;90.30;;;;;;5048927;28;19928;-75
2022/03/31 06:05:50;;;;;;;;;;;7.30;90.30;;;;;;5046439;28;19928;-75
2022/03/31 06:08:17;;;;;;;;;;;7.30;90.20;;;;;;5050790;28;20359;-74
2022/03/31 06:10:44;;;;;;;;;;;7.30;90.10;;;;;;5048833;28;19929;-75
2022/03/31 06:13:12;;;;;;;;;;;7.30;90.10;;;;;;5053274;28;20390;-75
2022/03/31 06:15:39;;;;;;;;;;;7.30;90.00;;;;;;5046151;28;19929;-75
2022/03/31 06:18:06;;;;;;;;;;;7.30;89.90;;;;;;5043284;28;19928;-76
2022/03/31 06:20:34;;;;;;;;;;;7.30;89.80;;;;;;5051037;28;19936;-75
2022/03/31 06:23:00;;;;;;;;;;;7.30;90.10;;;;;;5045589;28;20014;-76
2022/03/31 06:25:27;;;;;;;;;;;7.40;89.70;;;;;;5046270;28;20300;-75
2022/03/31 06:27:54;;;;;;;;;;;7.40;89.50;;;;;;5049377;28;20513;-76
2022/03/31 06:30:22;;;;;;;;;;;7.30;89.40;;;;;;5044614;28;19936;-75
2022/03/31 06:32:49;;;;;;;;;;;7.30;89.20;;;;;;5044288;28;19936;-75
2022/03/31 06:35:16;;;;;;;;;;;7.40;89.30;;;;;;5045799;28;19932;-75
2022/03/31 06:37:43;;;;;;;;;;;7.40;89.40;;;;;;5043644;28;20312;-75
2022/03/31 06:40:12;;;;;;;;;;;7.40;89.30;;;;;;5047550;28;20483;-75
2022/03/31 06:42:39;;;;;;;;;;;7.30;89.90;;;;;;5040977;28;19929;-77
2022/03/31 06:45:08;;;;;;;;;;;7.40;89.30;;;;;;5043607;28;19932;-75
2022/03/31 06:47:36;;;;;;;;;;;7.40;89.20;;;;;;5045825;28;19975;-75
2022/03/31 06:50:04;;;;;;;;;;;7.40;89.20;;;;;;5043216;28;19936;-76
2022/03/31 06:52:30;;;;;;;;;;;7.30;89.20;;;;;;5044085;28;19929;-76
2022/03/31 06:54:57;;;;;;;;;;;7.40;89.30;;;;;;5044873;28;19928;-76
2022/03/31 06:57:24;;;;;;;;;;;7.40;89.20;;;;;;5043154;28;20340;-75
2022/03/31 06:59:51;;;;;;;;;;;7.40;89.20;;;;;;5043230;28;19990;-76
2022/03/31 07:02:17;;;;;;;;;;;7.30;89.30;;;;;;5044299;28;19933;-76
2022/03/31 07:04:45;;;;;;;;;;;7.40;89.40;;;;;;5045810;28;20403;-76
2022/03/31 07:07:12;;;;;;;;;;;7.30;89.30;;;;;;5044532;28;19929;-76
2022/03/31 07:09:38;;;;;;;;;;;7.30;89.40;;;;;;5043065;28;19929;-74
2022/03/31 07:12:05;;;;;;;;;;;7.30;89.40;;;;;;5045133;28;19936;-76
2022/03/31 07:14:35;;;;;;;;;;;7.30;89.40;;;;;;5042769;28;20348;-75
2022/03/31 07:17:02;;;;;;;;;;;7.30;89.30;;;;;;5042868;28;19998;-74
2022/03/31 07:19:29;;;;;;;;;;;7.30;89.40;;;;;;5043695;28;19929;-75
2022/03/31 07:21:57;;;;;;;;;;;7.30;89.40;;;;;;5041060;28;19963;-77
2022/03/31 07:24:23;;;;;;;;;;;7.30;89.30;;;;;;5045295;28;19942;-75
2022/03/31 07:26:50;;;;;;;;;;;7.30;89.40;;;;;;5042706;28;20602;-76
2022/03/31 07:29:17;;;;;;;;;;;7.30;89.40;;;;;;5045122;28;19983;-76
2022/03/31 07:31:43;;;;;;;;;;;7.30;89.40;;;;;;5040275;28;19928;-76
2022/03/31 07:34:10;;;;;;;;;;;7.30;89.50;;;;;;5043523;28;19928;-76
2022/03/31 07:36:36;;;;;;;;;;;7.30;89.40;;;;;;5042210;28;19940;-75
2022/03/31 07:39:04;;;;;;;;;;;7.30;89.40;;;;;;5041949;28;19935;-76
2022/03/31 07:41:31;;;;;;;;;;;7.30;89.40;;;;;;5043435;28;19968;-75
2022/03/31 07:43:57;;;;;;;;;;;7.30;89.40;;;;;;5040792;28;19936;-76
2022/03/31 07:46:24;;;;;;;;;;;7.30;89.40;;;;;;5045758;28;19935;-76
2022/03/31 07:48:51;;;;;;;;;;;7.30;89.50;;;;;;5042149;28;19928;-75
2022/03/31 07:51:18;;;;;;;;;;;7.30;89.60;;;;;;5043365;28;19928;-76
2022/03/31 07:53:45;;;;;;;;;;;7.30;89.50;;;;;;5041218;28;20025;-75
2022/03/31 07:56:13;;;;;;;;;;;7.30;89.60;;;;;;5040968;28;20643;-76
2022/03/31 07:58:39;;;;;;;;;;;7.30;89.50;;;;;;5041146;28;19933;-77
2022/03/31 08:01:07;;;;;;;;;;;7.30;89.50;;;;;;5039766;28;19932;-76
2022/03/31 08:03:34;;;;;;;;;;;7.30;89.60;;;;;;5044155;28;19928;-76
2022/03/31 08:06:00;;;;;;;;;;;7.30;89.60;;;;;;5042053;28;19940;-77
2022/03/31 08:08:28;;;;;;;;;;;7.30;89.60;;;;;;5039478;28;20514;-77
2022/03/31 08:10:55;;;;;;;;;;;7.30;89.70;;;;;;5042508;28;20589;-75
2022/03/31 08:13:26;;;;;;;;;;;7.30;89.80;;;;;;5039920;28;20022;-76
2022/03/31 08:15:54;;;;;;;;;;;7.30;89.70;;;;;;5041072;28;19955;-76
2022/03/31 08:18:28;;;;;;;;;;;7.30;89.70;;;;;;5042004;28;20069;-77
2022/03/31 08:20:55;;;;;;;;;;;7.30;89.60;;;;;;5041520;28;19929;-77
2022/03/31 08:23:22;;;;;;;;;;;7.30;89.70;;;;;;5041869;28;19940;-76
2022/03/31 08:25:49;;;;;;;;;;;7.30;89.60;;;;;;5043480;28;19932;-77
2022/03/31 08:28:15;;;;;;;;;;;7.30;89.60;;;;;;5044358;28;20444;-75
2022/03/31 08:30:43;;;;;;;;;;;7.30;89.70;;;;;;5039551;28;19936;-75
2022/03/31 08:33:10;;;;;;;;;;;7.30;89.70;;;;;;5044915;28;20024;-76
2022/03/31 08:35:36;;;;;;;;;;;7.30;89.80;;;;;;5041902;28;19929;-76
2022/03/31 08:38:03;;;;;;;;;;;7.40;89.80;;;;;;5040044;28;19928;-76
2022/03/31 08:40:30;;;;;;;;;;;7.30;89.60;;;;;;5043586;28;20411;-76
2022/03/31 08:42:57;;;;;;;;;;;7.30;89.60;;;;;;5041420;28;19951;-76
2022/03/31 08:45:23;;;;;;;;;;;7.40;89.80;;;;;;5040956;28;19935;-75
2022/03/31 08:47:53;;;;;;;;;;;7.40;89.80;;;;;;5042132;28;19929;-76
2022/03/31 08:50:21;;;;;;;;;;;7.40;89.70;;;;;;5042988;28;19940;-76
2022/03/31 08:52:48;;;;;;;;;;;7.40;89.80;;;;;;5042969;28;19933;-76
2022/03/31 08:55:14;;;;;;;;;;;7.40;89.80;;;;;;5045372;28;19932;-75
2022/03/31 08:57:42;;;;;;;;;;;7.40;89.90;;;;;;5044707;28;19935;-76
2022/03/31 09:00:09;;;;;;;;;;;7.40;89.90;;;;;;5041950;28;19936;-76
2022/03/31 09:02:37;;;;;;;;;;;7.40;89.80;;;;;;5041177;28;19929;-76
2022/03/31 09:05:06;;;;;;;;;;;7.50;89.80;;;;;;5042069;28;20450;-76
2022/03/31 09:07:33;;;;;;;;;;;7.50;89.60;;;;;;5041358;28;19990;-76
2022/03/31 09:10:00;;;;;;;;;;;7.50;89.50;;;;;;5041369;28;19928;-76
2022/03/31 09:12:37;;;;;;;;;;;7.50;89.50;;;;;;5046253;28;19924;-76
2022/03/31 09:15:08;;;;;;;;;;;7.50;89.50;;;;;;5044381;28;19928;-75
2022/03/31 09:17:35;;;;;;;;;;;7.60;89.70;;;;;;5053595;28;20297;-76
2022/03/31 09:20:02;;;;;;;;;;;7.60;89.80;;;;;;5047941;28;19936;-76
2022/03/31 09:22:30;;;;;;;;;;;7.60;89.90;;;;;;5045975;28;20318;-76
2022/03/31 09:25:01;;;;;;;;;;;7.60;89.70;;;;;;5048447;28;19929;-75
2022/03/31 09:27:28;;;;;;;;;;;7.70;89.60;;;;;;5045340;28;19987;-76
2022/03/31 09:30:04;;;;;;;;;;;7.70;89.60;;;;;;5043531;28;19982;-76
2022/03/31 09:32:30;;;;;;;;;;;7.70;89.40;;;;;;5045403;28;19991;-76
2022/03/31 09:35:05;;;;;;;;;;;7.70;89.40;;;;;;5044548;28;20314;-76
2022/03/31 09:37:33;;;;;;;;;;;7.70;89.30;;;;;;5043685;28;19936;-75
2022/03/31 09:39:59;;;;;;;;;;;7.70;89.30;;;;;;5048559;28;19980;-76
2022/03/31 09:42:26;;;;;;;;;;;7.70;89.00;;;;;;5045960;28;19932;-76
2022/03/31 09:44:56;;;;;;;;;;;7.80;89.00;;;;;;5046635;28;19958;-76
2022/03/31 09:47:23;;;;;;;;;;;7.80;89.00;;;;;;5046237;28;19937;-76
2022/03/31 09:49:52;;;;;;;;;;;7.80;89.00;;;;;;5045041;28;19929;-76
2022/03/31 09:52:20;;;;;;;;;;;7.80;88.90;;;;;;5042113;28;19933;-75
2022/03/31 09:54:48;;;;;;;;;;;7.90;89.00;;;;;;5046342;28;20545;-76
2022/03/31 09:57:15;;;;;;;;;;;7.80;88.90;;;;;;5046022;28;19932;-75
2022/03/31 09:59:42;;;;;;;;;;;7.80;88.90;;;;;;5043141;28;19936;-75
2022/03/31 10:02:09;;;;;;;;;;;7.90;88.80;;;;;;5043565;28;19929;-76
2022/03/31 10:04:36;;;;;;;;;;;7.90;88.70;;;;;;5049354;28;21091;-75
2022/03/31 10:07:03;;;;;;;;;;;7.90;88.70;;;;;;5042332;28;19936;-75
2022/03/31 10:09:32;;;;;;;;;;;7.90;88.70;;;;;;5046242;28;19932;-76
2022/03/31 10:12:03;;;;;;;;;;;7.90;88.70;;;;;;5047592;28;19968;-76
2022/03/31 10:14:33;;;;;;;;;;;8.00;88.60;;;;;;5045350;28;19939;-76
2022/03/31 10:17:00;;;;;;;;;;;8.00;88.60;;;;;;5041426;28;19929;-76
2022/03/31 10:19:28;;;;;;;;;;;8.00;88.50;;;;;;5045006;28;19948;-76
2022/03/31 10:21:59;;;;;;;;;;;8.00;88.50;;;;;;5047138;28;19971;-76
2022/03/31 10:24:44;;;;;;;;;;;8.00;88.50;;;;;;5042613;28;19964;-76
2022/03/31 10:27:15;;;;;;;;;;;8.00;88.40;;;;;;5039061;28;19925;-75
2022/03/31 10:29:43;;;;;;;;;;;8.10;88.40;;;;;;5043218;28;20012;-75
2022/03/31 10:32:20;;;;;;;;;;;8.10;88.30;;;;;;5043169;28;19935;-75
2022/03/31 10:34:48;;;;;;;;;;;8.10;88.20;;;;;;5043529;28;19928;-75
2022/03/31 10:37:16;;;;;;;;;;;8.10;88.20;;;;;;5042453;28;20393;-76
2022/03/31 10:39:51;;;;;;;;;;;8.10;88.20;;;;;;5041277;28;19928;-75
2022/03/31 10:42:19;;;;;;;;;;;8.10;88.10;;;;;;5041978;28;20027;-75
2022/03/31 10:44:46;;;;;;;;;;;8.20;88.10;;;;;;5044842;28;19990;-75
2022/03/31 10:47:12;;;;;;;;;;;8.20;88.00;;;;;;5041120;28;19943;-76
2022/03/31 10:49:39;;;;;;;;;;;8.20;88.20;;;;;;5043451;28;19929;-76
2022/03/31 10:52:14;;;;;;;;;;;8.20;88.10;;;;;;5042506;28;19937;-76
2022/03/31 10:54:40;;;;;;;;;;;8.20;88.10;;;;;;5043979;28;19928;-76
2022/03/31 10:57:08;;;;;;;;;;;8.20;87.90;;;;;;5050300;28;19932;-75
2022/03/31 10:59:36;;;;;;;;;;;8.30;87.90;;;;;;5045508;28;20316;-75
2022/03/31 11:02:08;;;;;;;;;;;8.30;87.70;;;;;;5045881;28;19929;-76
2022/03/31 11:04:43;;;;;;;;;;;8.20;87.50;;;;;;5044765;28;19956;-76
2022/03/31 11:07:13;;;;;;;;;;;8.30;87.60;;;;;;5043120;28;19933;-75
2022/03/31 11:09:41;;;;;;;;;;;8.30;87.70;;;;;;5038699;28;19929;-76
2022/03/31 11:12:07;;;;;;;;;;;8.40;87.70;;;;;;5045590;28;19932;-76
2022/03/31 11:14:35;;;;;;;;;;;8.40;87.60;;;;;;5043729;28;19929;-75
2022/03/31 11:17:02;;;;;;;;;;;8.40;87.50;;;;;;5041975;28;19937;-75
2022/03/31 11:19:36;;;;;;;;;;;8.40;87.20;;;;;;5039592;28;20374;-76
2022/03/31 11:22:02;;;;;;;;;;;8.40;87.10;;;;;;5043514;28;20036;-75
2022/03/31 11:24:29;;;;;;;;;;;8.40;88.10;;;;;;5044145;28;19928;-76
2022/03/31 11:26:56;;;;;;;;;;;8.50;87.60;;;;;;5041477;28;19929;-76
2022/03/31 11:29:26;;;;;;;;;;;8.40;87.50;;;;;;5045733;28;19982;-76
2022/03/31 11:31:56;;;;;;;;;;;8.50;87.40;;;;;;5041944;28;19933;-76
2022/03/31 11:34:24;;;;;;;;;;;8.50;87.40;;;;;;5041865;28;19944;-76
2022/03/31 11:36:51;;;;;;;;;;;8.50;87.20;;;;;;5043335;28;19932;-75
2022/03/31 11:39:19;;;;;;;;;;;8.50;87.30;;;;;;5040083;28;19955;-76
2022/03/31 11:41:45;;;;;;;;;;;8.60;87.20;;;;;;5044960;28;20339;-76
2022/03/31 11:44:12;;;;;;;;;;;8.60;87.30;;;;;;5042681;28;20019;-75
2022/03/31 11:46:39;;;;;;;;;;;8.60;87.30;;;;;;5042356;28;19929;-76
2022/03/31 11:49:14;;;;;;;;;;;8.60;87.40;;;;;;5043840;28;20605;-76
2022/03/31 11:51:41;;;;;;;;;;;8.60;87.40;;;;;;5050942;28;20534;-75
2022/03/31 11:54:08;;;;;;;;;;;8.70;87.30;;;;;;5047367;28;20019;-75
2022/03/31 11:56:34;;;;;;;;;;;8.70;87.30;;;;;;5044580;28;20019;-76
2022/03/31 11:59:03;;;;;;;;;;;8.70;87.20;;;;;;5046986;28;19935;-76
2022/03/31 12:01:33;;;;;;;;;;;8.70;87.10;;;;;;5040835;28;19929;-76
2022/03/31 12:04:00;;;;;;;;;;;8.70;87.30;;;;;;5042788;28;19929;-76
2022/03/31 12:06:31;;;;;;;;;;;8.70;87.20;;;;;;5038513;28;19929;-75
2022/03/31 12:08:58;;;;;;;;;;;8.80;87.10;;;;;;5042453;28;19940;-76
2022/03/31 12:11:29;;;;;;;;;;;8.80;87.10;;;;;;5045245;28;19928;-76
2022/03/31 12:13:57;;;;;;;;;;;8.80;86.80;;;;;;5043759;28;19929;-76
2022/03/31 12:16:25;;;;;;;;;;;8.80;86.60;;;;;;5041289;28;19929;-76
2022/03/31 12:18:55;;;;;;;;;;;8.80;86.50;;;;;;5046258;28;19939;-76
2022/03/31 12:21:21;;;;;;;;;;;8.80;86.50;;;;;;5044403;28;19929;-76
2022/03/31 12:23:49;;;;;;;;;;;8.90;86.60;;;;;;5042572;28;19929;-76
2022/03/31 12:26:20;;;;;;;;;;;8.90;86.60;;;;;;5043333;28;19935;-76
2022/03/31 12:28:47;;;;;;;;;;;8.90;86.30;;;;;;5047190;28;19972;-76
2022/03/31 12:31:21;;;;;;;;;;;8.90;86.30;;;;;;5041114;28;20385;-76
2022/03/31 12:33:48;;;;;;;;;;;8.90;86.30;;;;;;5042901;28;19939;-76
2022/03/31 12:36:14;;;;;;;;;;;8.90;86.20;;;;;;5047840;28;20309;-75
2022/03/31 12:38:43;;;;;;;;;;;9.00;86.10;;;;;;5037868;28;20683;-75
2022/03/31 12:41:19;;;;;;;;;;;9.00;86.00;;;;;;5044385;28;19933;-77
2022/03/31 12:44:03;;;;;;;;;;;9.00;85.80;;;;;;5041964;28;19936;-76
2022/03/31 12:46:32;;;;;;;;;;;9.10;85.80;;;;;;5037528;28;19952;-75
2022/03/31 12:49:02;;;;;;;;;;;9.10;85.60;;;;;;5046570;28;20011;-76
2022/03/31 12:51:29;;;;;;;;;;;9.10;85.50;;;;;;5046262;28;20027;-76
2022/03/31 12:53:55;;;;;;;;;;;9.10;85.30;;;;;;5042983;28;19932;-76
2022/03/31 12:56:28;;;;;;;;;;;9.10;85.20;;;;;;5043723;28;19929;-77
2022/03/31 12:58:55;;;;;;;;;;;9.20;85.20;;;;;;5043340;28;20384;-78
2022/03/31 13:01:25;;;;;;;;;;;9.20;85.10;;;;;;5044403;28;19933;-76
2022/03/31 13:03:52;;;;;;;;;;;9.20;85.00;;;;;;5045061;28;19945;-75
2022/03/31 13:06:19;;;;;;;;;;;9.20;84.90;;;;;;5046585;28;19940;-75
2022/03/31 13:08:45;;;;;;;;;;;9.30;84.90;;;;;;5043814;28;19933;-75
2022/03/31 13:11:13;;;;;;;;;;;9.20;84.70;;;;;;5043314;28;19936;-75
2022/03/31 13:13:42;;;;;;;;;;;9.30;84.70;;;;;;5045518;28;20024;-77
2022/03/31 13:16:09;;;;;;;;;;;9.30;84.50;;;;;;5045782;28;19980;-77
2022/03/31 13:18:36;;;;;;;;;;;9.30;84.50;;;;;;5045571;28;19956;-77
2022/03/31 13:21:03;;;;;;;;;;;9.30;84.40;;;;;;5048244;28;20031;-76
2022/03/31 13:23:30;;;;;;;;;;;9.30;84.30;;;;;;5043801;28;20362;-77
2022/03/31 13:25:56;;;;;;;;;;;9.30;84.10;;;;;;5044036;28;19947;-76
2022/03/31 13:28:23;;;;;;;;;;;9.40;84.10;;;;;;5044666;28;19929;-76
2022/03/31 13:30:51;;;;;;;;;;;9.40;84.10;;;;;;5048021;28;19932;-75
2022/03/31 13:33:17;;;;;;;;;;;9.40;84.10;;;;;;5050173;28;19929;-75
2022/03/31 13:35:44;;;;;;;;;;;9.40;84.00;;;;;;5050770;28;19933;-75
2022/03/31 13:38:11;;;;;;;;;;;9.40;84.20;;;;;;5052271;28;19937;-76
2022/03/31 13:40:38;;;;;;;;;;;9.40;84.00;;;;;;5048728;28;19935;-76
2022/03/31 13:43:06;;;;;;;;;;;9.50;83.80;;;;;;5046132;28;19928;-76
2022/03/31 13:45:33;;;;;;;;;;;9.40;84.00;;;;;;5047237;28;19979;-75
2022/03/31 13:48:01;;;;;;;;;;;9.40;83.70;;;;;;5046781;28;19935;-76
2022/03/31 13:50:27;;;;;;;;;;;9.40;83.70;;;;;;5053413;28;19940;-76
2022/03/31 13:55:35;;;;;;;;;;;9.40;83.70;;;;;;5046053;28;19931;-76
2022/03/31 14:03:32;;;;;;;;;;;9.50;83.80;;;;;;5050140;28;19932;-76
2022/03/31 14:05:59;;;;;;;;;;;9.50;83.60;;;;;;5039380;28;19940;-76
2022/03/31 14:08:25;;;;;;;;;;;9.50;83.40;;;;;;5051171;28;20437;-76
2022/03/31 14:10:52;;;;;;;;;;;9.40;83.30;;;;;;5051057;28;19929;-75
2022/03/31 14:13:19;;;;;;;;;;;9.50;83.30;;;;;;5047675;28;20482;-76
2022/03/31 14:15:46;;;;;;;;;;;9.50;84.00;;;;;;5045085;28;20532;-78
2022/03/31 14:18:12;;;;;;;;;;;9.60;85.90;;;;;;5046642;28;19929;-75
2022/03/31 14:20:40;;;;;;;;;;;9.60;86.60;;;;;;5049303;28;19933;-77
2022/03/31 14:23:07;;;;;;;;;;;9.70;88.10;;;;;;5040539;28;19935;-75
2022/03/31 14:25:35;;;;;;;;;;;9.70;89.40;;;;;;5045262;28;19929;-76
2022/03/31 14:28:01;;;;;;;;;;;9.80;90.10;;;;;;5045584;28;19994;-76
2022/03/31 14:30:28;;;;;;;;;;;9.80;90.40;;;;;;5045588;28;19968;-76
2022/03/31 14:32:55;;;;;;;;;;;9.90;90.60;;;;;;5045535;28;19933;-75
2022/03/31 14:35:21;;;;;;;;;;;10.00;90.80;;;;;;5045327;28;19936;-76
2022/03/31 14:37:49;;;;;;;;;;;10.00;90.80;;;;;;5045564;28;19932;-75
2022/03/31 14:40:16;;;;;;;;;;;10.00;90.80;;;;;;5043363;28;19928;-75
2022/03/31 14:42:42;;;;;;;;;;;10.10;90.80;;;;;;5044377;28;20652;-75